logo
Rechercher aéroport 
image banner adimage banner adimage banner ad
image banner ad

CCU2 - St-Cuthbert (Ulm Quebec)

Situé à , Canada

ICAO - , IATA -

Données fournies par Airmate  

Information générale

Coordonnées: N46°10'26" W73°16'44"
Élévation : 250 feet MSL.
Variation magnétique : -14.75° East
Voir autres Aéroports à Quebec

Données opérationnelles

Special qualification required
Heure actuelle UTC:
Heure actuelle locale:
Météo à : CYRQ - Trois-Rivieres ( 50 km )
METAR: CYRQ 130227Z AUTO 06011KT 9SM OVC009 M04/M05 A2995 RMK SLP147
TAF: TAF AMD CYRQ 050744Z 0508/0520 04005KT P6SM BKN060 OVC140 TEMPO 0508/0514 4SM -SN OVC040 PROB30 0508/0514 2SM -SN OVC015 FM051400 06008KT 2 1/2SM -SN OVC015 TEMPO 0514/0516 6SM -SN OVC025 PROB30 0514/0516 1 1/2SM -SN VV008 FM051600 VRB03KT 1SM -SN OVC007 TEMPO 0516/0520 3SM -SN OVC012 RMK FCST BASED ON AUTO OBS. NXT FCST BY 051400Z
Voir NOTAMs / SUP AIP / TFR affectant cet aéroport [VIEW]
Fréquences de communication: [VIEW]

Pistes:

Identifiant RWYQFULongueur (ft)Largeur (ft)SurfaceLDA (ft)
1083°135280GRASS1352
28263°135280GRASS1352

Coordonnées de l'aéroport

Adresse: Canada

Autres services d'aviation

Écoles de pilotage

Air Colimaçon

Air Colimaçon
leo@burman.ca+15143868080

Ulm Québec

Ulm Québec
info@ulmquebec.ca+15145026525

Vue satellite de CCU2